sensor_id;sensor_type;location;lat;lon;timestamp;temperature;humidity
1307;DHT22;646;48.696;9.114;2022-09-01T00:01:51;13.10;99.90
1307;DHT22;646;48.696;9.114;2022-09-01T00:04:21;12.70;99.90
1307;DHT22;646;48.696;9.114;2022-09-01T00:06:56;13.00;99.90
1307;DHT22;646;48.696;9.114;2022-09-01T00:12:28;13.00;99.90
1307;DHT22;646;48.696;9.114;2022-09-01T00:14:54;13.00;99.90
1307;DHT22;646;48.696;9.114;2022-09-01T00:17:20;12.80;99.90
1307;DHT22;646;48.696;9.114;2022-09-01T00:19:45;12.80;99.90
1307;DHT22;646;48.696;9.114;2022-09-01T00:22:12;12.90;99.90
1307;DHT22;646;48.696;9.114;2022-09-01T00:24:37;12.90;99.90
1307;DHT22;646;48.696;9.114;2022-09-01T00:27:03;13.00;99.90
1307;DHT22;646;48.696;9.114;2022-09-01T00:29:29;12.70;99.90
1307;DHT22;646;48.696;9.114;2022-09-01T00:32:17;12.90;99.90
1307;DHT22;646;48.696;9.114;2022-09-01T00:34:43;12.80;99.90
1307;DHT22;646;48.696;9.114;2022-09-01T00:37:08;12.70;99.90
1307;DHT22;646;48.696;9.114;2022-09-01T00:39:34;12.70;99.90
1307;DHT22;646;48.696;9.114;2022-09-01T00:42:02;12.90;99.90
1307;DHT22;646;48.696;9.114;2022-09-01T00:44:30;12.70;99.90
1307;DHT22;646;48.696;9.114;2022-09-01T00:46:55;12.60;99.90
1307;DHT22;646;48.696;9.114;2022-09-01T00:49:31;12.50;99.90
1307;DHT22;646;48.696;9.114;2022-09-01T00:52:20;12.60;99.90
1307;DHT22;646;48.696;9.114;2022-09-01T00:54:56;12.70;99.90
1307;DHT22;646;48.696;9.114;2022-09-01T00:57:23;12.50;99.90
1307;DHT22;646;48.696;9.114;2022-09-01T00:59:52;12.60;99.90
1307;DHT22;646;48.696;9.114;2022-09-01T01:02:22;12.40;99.90
1307;DHT22;646;48.696;9.114;2022-09-01T01:04:48;12.60;99.90
1307;DHT22;646;48.696;9.114;2022-09-01T01:07:20;12.60;99.90
1307;DHT22;646;48.696;9.114;2022-09-01T01:09:47;12.60;99.90
1307;DHT22;646;48.696;9.114;2022-09-01T01:12:14;12.80;99.90
1307;DHT22;646;48.696;9.114;2022-09-01T01:14:45;12.60;99.90
1307;DHT22;646;48.696;9.114;2022-09-01T01:17:15;12.70;99.90
1307;DHT22;646;48.696;9.114;2022-09-01T01:20:06;12.70;99.90
1307;DHT22;646;48.696;9.114;2022-09-01T01:23:15;12.60;99.90
1307;DHT22;646;48.696;9.114;2022-09-01T01:25:53;12.80;99.90
1307;DHT22;646;48.696;9.114;2022-09-01T01:28:29;12.60;99.90
1307;DHT22;646;48.696;9.114;2022-09-01T01:31:13;12.80;99.90
1307;DHT22;646;48.696;9.114;2022-09-01T01:33:45;12.50;99.90
1307;DHT22;646;48.696;9.114;2022-09-01T01:36:19;12.60;99.90
1307;DHT22;646;48.696;9.114;2022-09-01T01:38:48;12.50;99.90
1307;DHT22;646;48.696;9.114;2022-09-01T01:41:15;12.70;99.90
1307;DHT22;646;48.696;9.114;2022-09-01T01:43:44;12.50;99.90
1307;DHT22;646;48.696;9.114;2022-09-01T01:46:11;12.70;99.90
1307;DHT22;646;48.696;9.114;2022-09-01T01:48:53;12.70;99.90
1307;DHT22;646;48.696;9.114;2022-09-01T01:51:21;12.60;99.90
1307;DHT22;646;48.696;9.114;2022-09-01T01:54:07;13.00;99.90
1307;DHT22;646;48.696;9.114;2022-09-01T01:56:33;12.80;99.90
1307;DHT22;646;48.696;9.114;2022-09-01T01:59:02;13.00;99.90
1307;DHT22;646;48.696;9.114;2022-09-01T02:01:29;12.80;99.90
1307;DHT22;646;48.696;9.114;2022-09-01T02:03:57;12.70;99.90
1307;DHT22;646;48.696;9.114;2022-09-01T02:06:25;12.50;99.90
1307;DHT22;646;48.696;9.114;2022-09-01T02:09:02;12.70;99.90
1307;DHT22;646;48.696;9.114;2022-09-01T02:11:29;12.70;99.90
1307;DHT22;646;48.696;9.114;2022-09-01T02:13:58;12.90;99.90
1307;DHT22;646;48.696;9.114;2022-09-01T02:16:27;12.80;99.90
1307;DHT22;646;48.696;9.114;2022-09-01T02:19:03;12.80;99.90
1307;DHT22;646;48.696;9.114;2022-09-01T02:21:31;12.80;99.90
1307;DHT22;646;48.696;9.114;2022-09-01T02:23:59;12.90;99.90
1307;DHT22;646;48.696;9.114;2022-09-01T02:26:30;13.00;99.90
1307;DHT22;646;48.696;9.114;2022-09-01T02:28:57;12.90;99.90
1307;DHT22;646;48.696;9.114;2022-09-01T02:31:26;12.90;99.90
1307;DHT22;646;48.696;9.114;2022-09-01T02:33:52;12.90;99.90
1307;DHT22;646;48.696;9.114;2022-09-01T02:36:19;13.00;99.90
1307;DHT22;646;48.696;9.114;2022-09-01T02:38:47;12.60;99.90
1307;DHT22;646;48.696;9.114;2022-09-01T02:41:20;12.90;99.90
1307;DHT22;646;48.696;9.114;2022-09-01T02:43:48;12.90;99.90
1307;DHT22;646;48.696;9.114;2022-09-01T02:46:14;12.80;99.90
1307;DHT22;646;48.696;9.114;2022-09-01T02:48:41;12.80;99.90
1307;DHT22;646;48.696;9.114;2022-09-01T02:51:29;12.90;99.90
1307;DHT22;646;48.696;9.114;2022-09-01T02:54:10;12.70;99.90
1307;DHT22;646;48.696;9.114;2022-09-01T02:56:37;12.60;99.90
1307;DHT22;646;48.696;9.114;2022-09-01T02:59:02;12.90;99.90
1307;DHT22;646;48.696;9.114;2022-09-01T03:01:30;12.70;99.90
1307;DHT22;646;48.696;9.114;2022-09-01T03:03:59;12.90;99.90
1307;DHT22;646;48.696;9.114;2022-09-01T03:06:25;12.80;99.90
1307;DHT22;646;48.696;9.114;2022-09-01T03:08:54;13.00;99.90
1307;DHT22;646;48.696;9.114;2022-09-01T03:11:21;12.80;99.90
1307;DHT22;646;48.696;9.114;2022-09-01T03:17:10;12.50;99.90
1307;DHT22;646;48.696;9.114;2022-09-01T03:19:37;12.50;99.90
1307;DHT22;646;48.696;9.114;2022-09-01T03:22:06;12.60;99.90
1307;DHT22;646;48.696;9.114;2022-09-01T03:24:31;12.40;99.90
1307;DHT22;646;48.696;9.114;2022-09-01T03:26:57;12.50;99.90
1307;DHT22;646;48.696;9.114;2022-09-01T03:29:22;12.40;99.90
1307;DHT22;646;48.696;9.114;2022-09-01T03:31:49;12.60;99.90
1307;DHT22;646;48.696;9.114;2022-09-01T03:34:15;12.30;99.90
1307;DHT22;646;48.696;9.114;2022-09-01T03:36:50;12.30;99.90
1307;DHT22;646;48.696;9.114;2022-09-01T03:39:17;12.30;99.90
1307;DHT22;646;48.696;9.114;2022-09-01T03:41:43;12.00;99.90
1307;DHT22;646;48.696;9.114;2022-09-01T03:44:15;11.90;99.90
1307;DHT22;646;48.696;9.114;2022-09-01T03:49:49;12.30;99.90
1307;DHT22;646;48.696;9.114;2022-09-01T03:52:18;12.10;99.90
1307;DHT22;646;48.696;9.114;2022-09-01T03:54:43;11.90;99.90
1307;DHT22;646;48.696;9.114;2022-09-01T03:57:24;12.00;99.90
1307;DHT22;646;48.696;9.114;2022-09-01T04:00:19;12.10;99.90
1307;DHT22;646;48.696;9.114;2022-09-01T04:02:51;11.90;99.90
1307;DHT22;646;48.696;9.114;2022-09-01T04:05:20;12.20;99.90
1307;DHT22;646;48.696;9.114;2022-09-01T04:07:48;12.20;99.90
1307;DHT22;646;48.696;9.114;2022-09-01T04:10:15;12.10;99.90
1307;DHT22;646;48.696;9.114;2022-09-01T04:12:42;12.00;99.90
1307;DHT22;646;48.696;9.114;2022-09-01T04:15:27;11.80;99.90
1307;DHT22;646;48.696;9.114;2022-09-01T04:17:54;11.90;99.90
1307;DHT22;646;48.696;9.114;2022-09-01T04:20:39;12.10;99.90
1307;DHT22;646;48.696;9.114;2022-09-01T04:23:25;11.90;99.90
1307;DHT22;646;48.696;9.114;2022-09-01T04:26:03;12.20;99.90
1307;DHT22;646;48.696;9.114;2022-09-01T04:32:14;12.00;99.90
1307;DHT22;646;48.696;9.114;2022-09-01T04:37:52;12.30;99.90
1307;DHT22;646;48.696;9.114;2022-09-01T04:40:19;12.40;99.90
1307;DHT22;646;48.696;9.114;2022-09-01T04:43:14;12.50;99.90
1307;DHT22;646;48.696;9.114;2022-09-01T04:46:18;12.60;99.90
1307;DHT22;646;48.696;9.114;2022-09-01T04:48:45;12.80;99.90
1307;DHT22;646;48.696;9.114;2022-09-01T04:51:42;12.70;99.90
1307;DHT22;646;48.696;9.114;2022-09-01T04:54:22;12.60;99.90
1307;DHT22;646;48.696;9.114;2022-09-01T04:57:24;12.80;99.90
1307;DHT22;646;48.696;9.114;2022-09-01T05:03:14;12.90;99.90
1307;DHT22;646;48.696;9.114;2022-09-01T05:05:44;12.70;99.90
1307;DHT22;646;48.696;9.114;2022-09-01T05:08:14;12.80;99.90
1307;DHT22;646;48.696;9.114;2022-09-01T05:10:42;13.00;99.90
1307;DHT22;646;48.696;9.114;2022-09-01T05:13:10;13.10;99.90
1307;DHT22;646;48.696;9.114;2022-09-01T05:15:38;13.00;99.90
1307;DHT22;646;48.696;9.114;2022-09-01T05:18:05;13.00;99.90
1307;DHT22;646;48.696;9.114;2022-09-01T05:20:38;13.50;99.90
1307;DHT22;646;48.696;9.114;2022-09-01T05:23:07;13.40;99.90
1307;DHT22;646;48.696;9.114;2022-09-01T05:25:43;13.20;99.90
1307;DHT22;646;48.696;9.114;2022-09-01T05:28:10;13.30;99.90
1307;DHT22;646;48.696;9.114;2022-09-01T05:30:39;13.20;99.90
1307;DHT22;646;48.696;9.114;2022-09-01T05:33:05;13.40;99.90
1307;DHT22;646;48.696;9.114;2022-09-01T05:38:39;13.60;99.90
1307;DHT22;646;48.696;9.114;2022-09-01T05:41:08;13.50;99.90
1307;DHT22;646;48.696;9.114;2022-09-01T05:43:36;13.60;99.90
1307;DHT22;646;48.696;9.114;2022-09-01T05:49:16;13.50;99.90
1307;DHT22;646;48.696;9.114;2022-09-01T05:51:45;13.50;99.90
1307;DHT22;646;48.696;9.114;2022-09-01T05:54:22;14.00;99.90
1307;DHT22;646;48.696;9.114;2022-09-01T05:57:19;14.30;99.90
1307;DHT22;646;48.696;9.114;2022-09-01T05:59:44;14.60;99.90
1307;DHT22;646;48.696;9.114;2022-09-01T06:02:17;14.60;99.90
1307;DHT22;646;48.696;9.114;2022-09-01T06:04:43;14.70;99.90
1307;DHT22;646;48.696;9.114;2022-09-01T06:07:22;14.60;99.90
1307;DHT22;646;48.696;9.114;2022-09-01T06:09:48;15.20;99.90
1307;DHT22;646;48.696;9.114;2022-09-01T06:12:15;15.10;99.90
1307;DHT22;646;48.696;9.114;2022-09-01T06:15:11;14.90;99.90
1307;DHT22;646;48.696;9.114;2022-09-01T06:17:52;15.20;99.90
1307;DHT22;646;48.696;9.114;2022-09-01T06:20:17;15.00;99.90
1307;DHT22;646;48.696;9.114;2022-09-01T06:22:43;15.30;99.90
1307;DHT22;646;48.696;9.114;2022-09-01T06:25:45;15.40;99.90
1307;DHT22;646;48.696;9.114;2022-09-01T06:28:36;15.80;99.90
1307;DHT22;646;48.696;9.114;2022-09-01T06:31:11;15.70;99.90
1307;DHT22;646;48.696;9.114;2022-09-01T06:37:18;15.90;99.90
1307;DHT22;646;48.696;9.114;2022-09-01T06:39:47;16.30;99.90
1307;DHT22;646;48.696;9.114;2022-09-01T06:42:19;16.40;99.90
1307;DHT22;646;48.696;9.114;2022-09-01T06:44:48;16.60;99.90
1307;DHT22;646;48.696;9.114;2022-09-01T06:47:19;16.60;99.90
1307;DHT22;646;48.696;9.114;2022-09-01T06:50:19;16.90;99.90
1307;DHT22;646;48.696;9.114;2022-09-01T06:53:18;17.30;99.90
1307;DHT22;646;48.696;9.114;2022-09-01T06:55:47;17.20;99.90
1307;DHT22;646;48.696;9.114;2022-09-01T06:58:13;17.50;99.90
1307;DHT22;646;48.696;9.114;2022-09-01T07:03:52;18.10;99.90
1307;DHT22;646;48.696;9.114;2022-09-01T07:06:28;18.40;99.90
1307;DHT22;646;48.696;9.114;2022-09-01T07:08:57;18.60;99.90
1307;DHT22;646;48.696;9.114;2022-09-01T07:11:40;18.40;99.90
1307;DHT22;646;48.696;9.114;2022-09-01T07:14:05;18.50;99.90
1307;DHT22;646;48.696;9.114;2022-09-01T07:16:37;18.90;99.90
1307;DHT22;646;48.696;9.114;2022-09-01T07:22:40;18.60;99.90
1307;DHT22;646;48.696;9.114;2022-09-01T07:25:06;18.50;99.90
1307;DHT22;646;48.696;9.114;2022-09-01T07:27:35;18.70;99.90
1307;DHT22;646;48.696;9.114;2022-09-01T07:30:02;18.80;99.90
1307;DHT22;646;48.696;9.114;2022-09-01T07:32:28;18.60;99.90
1307;DHT22;646;48.696;9.114;2022-09-01T07:34:55;18.60;99.90
1307;DHT22;646;48.696;9.114;2022-09-01T07:41:19;18.70;99.90
1307;DHT22;646;48.696;9.114;2022-09-01T07:43:46;19.00;99.90
1307;DHT22;646;48.696;9.114;2022-09-01T07:46:11;19.20;99.90
1307;DHT22;646;48.696;9.114;2022-09-01T07:48:38;19.10;99.90
1307;DHT22;646;48.696;9.114;2022-09-01T07:51:04;19.30;99.90
1307;DHT22;646;48.696;9.114;2022-09-01T07:53:35;19.60;99.90
1307;DHT22;646;48.696;9.114;2022-09-01T07:56:07;19.60;99.90
1307;DHT22;646;48.696;9.114;2022-09-01T07:58:41;19.60;99.90
1307;DHT22;646;48.696;9.114;2022-09-01T08:01:22;19.70;99.90
1307;DHT22;646;48.696;9.114;2022-09-01T08:04:01;19.50;99.90
1307;DHT22;646;48.696;9.114;2022-09-01T08:10:06;19.60;99.90
1307;DHT22;646;48.696;9.114;2022-09-01T08:12:33;19.40;99.90
1307;DHT22;646;48.696;9.114;2022-09-01T08:15:01;19.60;99.90
1307;DHT22;646;48.696;9.114;2022-09-01T08:17:27;19.70;99.90
1307;DHT22;646;48.696;9.114;2022-09-01T08:19:52;20.20;99.90
1307;DHT22;646;48.696;9.114;2022-09-01T08:22:19;20.30;99.90
1307;DHT22;646;48.696;9.114;2022-09-01T08:24:50;20.40;99.90
1307;DHT22;646;48.696;9.114;2022-09-01T08:27:16;20.70;99.90
1307;DHT22;646;48.696;9.114;2022-09-01T08:29:49;20.60;99.90
1307;DHT22;646;48.696;9.114;2022-09-01T08:32:14;21.00;99.90
1307;DHT22;646;48.696;9.114;2022-09-01T08:34:40;21.30;99.90
1307;DHT22;646;48.696;9.114;2022-09-01T08:37:08;21.00;99.90
1307;DHT22;646;48.696;9.114;2022-09-01T08:39:33;21.60;99.90
1307;DHT22;646;48.696;9.114;2022-09-01T08:42:30;21.50;99.90
1307;DHT22;646;48.696;9.114;2022-09-01T08:45:24;21.60;99.90
1307;DHT22;646;48.696;9.114;2022-09-01T08:47:55;21.60;99.90
1307;DHT22;646;48.696;9.114;2022-09-01T08:50:23;21.80;99.90
1307;DHT22;646;48.696;9.114;2022-09-01T08:53:05;22.20;99.90
1307;DHT22;646;48.696;9.114;2022-09-01T08:55:43;22.40;99.90
1307;DHT22;646;48.696;9.114;2022-09-01T08:58:11;22.50;99.90
1307;DHT22;646;48.696;9.114;2022-09-01T09:01:14;22.60;97.90
1307;DHT22;646;48.696;9.114;2022-09-01T09:04:03;22.80;99.90
1307;DHT22;646;48.696;9.114;2022-09-01T09:06:40;23.10;99.90
1307;DHT22;646;48.696;9.114;2022-09-01T09:09:11;23.90;99.90
1307;DHT22;646;48.696;9.114;2022-09-01T09:12:04;24.70;89.10
1307;DHT22;646;48.696;9.114;2022-09-01T09:14:56;25.40;74.80
1307;DHT22;646;48.696;9.114;2022-09-01T09:17:33;26.50;77.90
1307;DHT22;646;48.696;9.114;2022-09-01T09:20:00;26.80;67.40
1307;DHT22;646;48.696;9.114;2022-09-01T09:22:25;27.20;65.80
1307;DHT22;646;48.696;9.114;2022-09-01T09:25:08;27.30;72.90
1307;DHT22;646;48.696;9.114;2022-09-01T09:27:43;27.20;67.20
1307;DHT22;646;48.696;9.114;2022-09-01T09:30:24;26.70;65.00
1307;DHT22;646;48.696;9.114;2022-09-01T09:32:54;27.00;64.50
1307;DHT22;646;48.696;9.114;2022-09-01T09:35:43;27.00;65.30
1307;DHT22;646;48.696;9.114;2022-09-01T09:41:00;26.50;58.20
1307;DHT22;646;48.696;9.114;2022-09-01T09:43:29;26.20;59.50
1307;DHT22;646;48.696;9.114;2022-09-01T09:48:48;26.10;68.70
1307;DHT22;646;48.696;9.114;2022-09-01T09:51:20;25.90;72.20
1307;DHT22;646;48.696;9.114;2022-09-01T09:53:45;25.80;59.20
1307;DHT22;646;48.696;9.114;2022-09-01T09:58:40;25.80;65.40
1307;DHT22;646;48.696;9.114;2022-09-01T10:01:33;25.40;58.50
1307;DHT22;646;48.696;9.114;2022-09-01T10:04:00;25.30;59.90
1307;DHT22;646;48.696;9.114;2022-09-01T10:06:37;25.00;62.20
1307;DHT22;646;48.696;9.114;2022-09-01T10:09:08;24.90;65.90
1307;DHT22;646;48.696;9.114;2022-09-01T10:11:41;24.30;71.30
1307;DHT22;646;48.696;9.114;2022-09-01T10:16:42;24.80;68.60
1307;DHT22;646;48.696;9.114;2022-09-01T10:19:13;24.80;74.20
1307;DHT22;646;48.696;9.114;2022-09-01T10:21:41;25.00;59.00
1307;DHT22;646;48.696;9.114;2022-09-01T10:24:30;25.40;59.60
1307;DHT22;646;48.696;9.114;2022-09-01T10:26:59;25.40;59.20
1307;DHT22;646;48.696;9.114;2022-09-01T10:31:53;25.40;66.60
1307;DHT22;646;48.696;9.114;2022-09-01T10:34:21;25.50;65.50
1307;DHT22;646;48.696;9.114;2022-09-01T10:36:48;25.60;59.80
1307;DHT22;646;48.696;9.114;2022-09-01T10:39:17;25.80;58.80
1307;DHT22;646;48.696;9.114;2022-09-01T10:41:53;25.80;61.50
1307;DHT22;646;48.696;9.114;2022-09-01T10:44:22;26.00;58.40
1307;DHT22;646;48.696;9.114;2022-09-01T10:46:49;26.10;56.90
1307;DHT22;646;48.696;9.114;2022-09-01T10:52:09;27.70;55.90
1307;DHT22;646;48.696;9.114;2022-09-01T11:05:58;26.90;52.60
1307;DHT22;646;48.696;9.114;2022-09-01T11:10:54;27.60;50.70
1307;DHT22;646;48.696;9.114;2022-09-01T11:13:51;27.40;52.20
1307;DHT22;646;48.696;9.114;2022-09-01T11:19:31;26.50;52.00
1307;DHT22;646;48.696;9.114;2022-09-01T11:22:13;27.50;61.60
1307;DHT22;646;48.696;9.114;2022-09-01T11:27:54;31.80;46.60
1307;DHT22;646;48.696;9.114;2022-09-01T11:30:02;33.40;46.60
1307;DHT22;646;48.696;9.114;2022-09-01T11:32:33;35.30;44.10
1307;DHT22;646;48.696;9.114;2022-09-01T11:35:02;36.80;37.80
1307;DHT22;646;48.696;9.114;2022-09-01T11:37:29;38.00;31.40
1307;DHT22;646;48.696;9.114;2022-09-01T11:39:59;38.90;31.20
1307;DHT22;646;48.696;9.114;2022-09-01T11:47:36;39.00;34.50
1307;DHT22;646;48.696;9.114;2022-09-01T11:50:06;37.20;29.80
1307;DHT22;646;48.696;9.114;2022-09-01T11:52:37;35.40;30.50
1307;DHT22;646;48.696;9.114;2022-09-01T11:55:06;35.20;36.20
1307;DHT22;646;48.696;9.114;2022-09-01T11:57:33;36.20;38.70
1307;DHT22;646;48.696;9.114;2022-09-01T12:00:03;37.10;37.30
1307;DHT22;646;48.696;9.114;2022-09-01T12:02:32;37.30;36.80
1307;DHT22;646;48.696;9.114;2022-09-01T12:05:00;36.50;43.00
1307;DHT22;646;48.696;9.114;2022-09-01T12:07:34;37.10;36.40
1307;DHT22;646;48.696;9.114;2022-09-01T12:10:02;37.30;29.80
1307;DHT22;646;48.696;9.114;2022-09-01T12:12:38;37.00;31.10
1307;DHT22;646;48.696;9.114;2022-09-01T12:15:16;36.30;29.60
1307;DHT22;646;48.696;9.114;2022-09-01T12:17:42;34.90;31.60
1307;DHT22;646;48.696;9.114;2022-09-01T12:20:25;33.50;33.80
1307;DHT22;646;48.696;9.114;2022-09-01T12:22:54;33.10;42.60
1307;DHT22;646;48.696;9.114;2022-09-01T12:25:42;34.00;37.60
1307;DHT22;646;48.696;9.114;2022-09-01T12:28:08;34.90;45.20
1307;DHT22;646;48.696;9.114;2022-09-01T12:30:37;35.60;40.80
1307;DHT22;646;48.696;9.114;2022-09-01T12:33:14;35.50;33.40
1307;DHT22;646;48.696;9.114;2022-09-01T12:35:42;34.70;43.40
1307;DHT22;646;48.696;9.114;2022-09-01T12:41:36;36.90;32.00
1307;DHT22;646;48.696;9.114;2022-09-01T12:47:05;37.60;37.10
1307;DHT22;646;48.696;9.114;2022-09-01T12:49:47;37.10;30.30
1307;DHT22;646;48.696;9.114;2022-09-01T12:57:48;37.80;35.70
1307;DHT22;646;48.696;9.114;2022-09-01T13:00:26;38.60;34.70
1307;DHT22;646;48.696;9.114;2022-09-01T13:08:04;41.10;26.70
1307;DHT22;646;48.696;9.114;2022-09-01T13:10:51;41.50;27.00
1307;DHT22;646;48.696;9.114;2022-09-01T13:13:35;42.20;26.20
1307;DHT22;646;48.696;9.114;2022-09-01T13:16:22;42.60;24.30
1307;DHT22;646;48.696;9.114;2022-09-01T13:18:49;42.60;24.40
1307;DHT22;646;48.696;9.114;2022-09-01T13:21:15;41.80;23.90
1307;DHT22;646;48.696;9.114;2022-09-01T13:23:43;40.70;25.10
1307;DHT22;646;48.696;9.114;2022-09-01T13:26:11;40.20;25.70
1307;DHT22;646;48.696;9.114;2022-09-01T13:28:36;40.20;25.90
1307;DHT22;646;48.696;9.114;2022-09-01T13:31:19;39.40;24.90
1307;DHT22;646;48.696;9.114;2022-09-01T13:33:56;37.80;27.60
1307;DHT22;646;48.696;9.114;2022-09-01T13:36:22;38.00;27.80
1307;DHT22;646;48.696;9.114;2022-09-01T13:38:53;38.20;26.60
1307;DHT22;646;48.696;9.114;2022-09-01T13:41:19;37.50;26.80
1307;DHT22;646;48.696;9.114;2022-09-01T13:43:45;37.30;28.20
1307;DHT22;646;48.696;9.114;2022-09-01T13:46:11;37.70;27.50
1307;DHT22;646;48.696;9.114;2022-09-01T13:48:36;38.20;28.80
1307;DHT22;646;48.696;9.114;2022-09-01T13:51:02;38.60;28.40
1307;DHT22;646;48.696;9.114;2022-09-01T13:53:28;38.90;27.20
1307;DHT22;646;48.696;9.114;2022-09-01T13:55:53;39.10;27.00
1307;DHT22;646;48.696;9.114;2022-09-01T13:58:19;39.20;27.10
1307;DHT22;646;48.696;9.114;2022-09-01T14:00:46;39.30;26.00
1307;DHT22;646;48.696;9.114;2022-09-01T14:03:17;38.70;26.60
1307;DHT22;646;48.696;9.114;2022-09-01T14:05:44;36.90;27.40
1307;DHT22;646;48.696;9.114;2022-09-01T14:08:11;36.20;29.10
1307;DHT22;646;48.696;9.114;2022-09-01T14:10:41;35.60;30.40
1307;DHT22;646;48.696;9.114;2022-09-01T14:13:10;35.30;30.50
1307;DHT22;646;48.696;9.114;2022-09-01T14:15:50;34.20;32.00
1307;DHT22;646;48.696;9.114;2022-09-01T14:18:24;33.50;33.40
1307;DHT22;646;48.696;9.114;2022-09-01T14:21:01;32.60;34.80
1307;DHT22;646;48.696;9.114;2022-09-01T14:23:28;32.30;36.00
1307;DHT22;646;48.696;9.114;2022-09-01T14:25:54;32.60;35.30
1307;DHT22;646;48.696;9.114;2022-09-01T14:28:21;33.00;35.20
1307;DHT22;646;48.696;9.114;2022-09-01T14:30:49;33.10;34.80
1307;DHT22;646;48.696;9.114;2022-09-01T14:33:16;33.10;33.90
1307;DHT22;646;48.696;9.114;2022-09-01T14:35:44;32.20;34.20
1307;DHT22;646;48.696;9.114;2022-09-01T14:38:10;32.10;36.70
1307;DHT22;646;48.696;9.114;2022-09-01T14:40:38;32.50;34.50
1307;DHT22;646;48.696;9.114;2022-09-01T14:43:06;33.10;33.90
1307;DHT22;646;48.696;9.114;2022-09-01T14:45:34;33.80;32.40
1307;DHT22;646;48.696;9.114;2022-09-01T14:48:01;34.40;33.10
1307;DHT22;646;48.696;9.114;2022-09-01T14:50:28;34.70;31.90
1307;DHT22;646;48.696;9.114;2022-09-01T14:52:57;34.70;30.10
1307;DHT22;646;48.696;9.114;2022-09-01T14:55:25;34.70;29.90
1307;DHT22;646;48.696;9.114;2022-09-01T14:57:53;34.90;30.40
1307;DHT22;646;48.696;9.114;2022-09-01T15:00:20;35.00;30.10
1307;DHT22;646;48.696;9.114;2022-09-01T15:02:46;35.00;30.00
1307;DHT22;646;48.696;9.114;2022-09-01T15:05:12;35.10;30.30
1307;DHT22;646;48.696;9.114;2022-09-01T15:07:39;34.90;29.90
1307;DHT22;646;48.696;9.114;2022-09-01T15:10:06;34.60;30.20
1307;DHT22;646;48.696;9.114;2022-09-01T15:12:32;34.50;30.70
1307;DHT22;646;48.696;9.114;2022-09-01T15:14:59;34.20;31.30
1307;DHT22;646;48.696;9.114;2022-09-01T15:17:26;34.10;32.00
1307;DHT22;646;48.696;9.114;2022-09-01T15:19:52;34.00;31.20
1307;DHT22;646;48.696;9.114;2022-09-01T15:22:18;33.70;31.50
1307;DHT22;646;48.696;9.114;2022-09-01T15:24:43;33.50;32.00
1307;DHT22;646;48.696;9.114;2022-09-01T15:27:09;33.30;32.10
1307;DHT22;646;48.696;9.114;2022-09-01T15:29:36;33.10;33.10
1307;DHT22;646;48.696;9.114;2022-09-01T15:32:11;33.10;33.10
1307;DHT22;646;48.696;9.114;2022-09-01T15:34:38;32.90;32.70
1307;DHT22;646;48.696;9.114;2022-09-01T15:37:04;32.60;32.80
1307;DHT22;646;48.696;9.114;2022-09-01T15:39:30;32.40;33.20
1307;DHT22;646;48.696;9.114;2022-09-01T15:41:56;32.10;34.20
1307;DHT22;646;48.696;9.114;2022-09-01T15:44:21;32.00;35.60
1307;DHT22;646;48.696;9.114;2022-09-01T15:46:47;31.90;36.00
1307;DHT22;646;48.696;9.114;2022-09-01T15:49:13;31.70;34.90
1307;DHT22;646;48.696;9.114;2022-09-01T15:51:40;31.50;35.70
1307;DHT22;646;48.696;9.114;2022-09-01T15:56:34;31.00;35.80
1307;DHT22;646;48.696;9.114;2022-09-01T15:59:00;30.70;36.40
1307;DHT22;646;48.696;9.114;2022-09-01T16:01:27;30.20;36.70
1307;DHT22;646;48.696;9.114;2022-09-01T16:03:54;29.70;38.10
1307;DHT22;646;48.696;9.114;2022-09-01T16:06:20;29.20;38.40
1307;DHT22;646;48.696;9.114;2022-09-01T16:08:47;28.60;40.20
1307;DHT22;646;48.696;9.114;2022-09-01T16:11:13;27.90;41.50
1307;DHT22;646;48.696;9.114;2022-09-01T16:13:40;27.10;43.20
1307;DHT22;646;48.696;9.114;2022-09-01T16:18:47;25.80;45.50
1307;DHT22;646;48.696;9.114;2022-09-01T16:22:04;25.40;47.10
1307;DHT22;646;48.696;9.114;2022-09-01T16:24:28;24.80;48.60
1307;DHT22;646;48.696;9.114;2022-09-01T16:26:55;24.50;49.40
1307;DHT22;646;48.696;9.114;2022-09-01T16:32:11;23.90;50.50
1307;DHT22;646;48.696;9.114;2022-09-01T16:34:39;23.30;50.50
1307;DHT22;646;48.696;9.114;2022-09-01T16:37:28;23.30;51.80
1307;DHT22;646;48.696;9.114;2022-09-01T16:46:46;22.70;52.80
1307;DHT22;646;48.696;9.114;2022-09-01T16:54:24;22.50;53.50
1307;DHT22;646;48.696;9.114;2022-09-01T16:57:01;22.40;53.80
1307;DHT22;646;48.696;9.114;2022-09-01T16:59:53;22.10;54.10
1307;DHT22;646;48.696;9.114;2022-09-01T17:04:58;22.10;55.30
1307;DHT22;646;48.696;9.114;2022-09-01T17:07:31;21.70;55.80
1307;DHT22;646;48.696;9.114;2022-09-01T17:15:24;21.60;57.90
1307;DHT22;646;48.696;9.114;2022-09-01T17:18:08;21.50;58.20
1307;DHT22;646;48.696;9.114;2022-09-01T17:20:34;21.40;58.80
1307;DHT22;646;48.696;9.114;2022-09-01T17:23:04;21.10;59.30
1307;DHT22;646;48.696;9.114;2022-09-01T17:25:39;21.00;60.00
1307;DHT22;646;48.696;9.114;2022-09-01T17:28:25;21.00;60.00
1307;DHT22;646;48.696;9.114;2022-09-01T17:30:56;20.90;60.10
1307;DHT22;646;48.696;9.114;2022-09-01T17:36:19;20.80;62.30
1307;DHT22;646;48.696;9.114;2022-09-01T17:39:07;20.60;62.30
1307;DHT22;646;48.696;9.114;2022-09-01T17:41:40;20.40;62.70
1307;DHT22;646;48.696;9.114;2022-09-01T17:44:35;20.50;63.60
1307;DHT22;646;48.696;9.114;2022-09-01T17:47:26;20.40;64.00
1307;DHT22;646;48.696;9.114;2022-09-01T17:55:50;19.90;66.00
1307;DHT22;646;48.696;9.114;2022-09-01T17:58:30;19.90;67.00
1307;DHT22;646;48.696;9.114;2022-09-01T18:01:21;19.30;67.20
1307;DHT22;646;48.696;9.114;2022-09-01T18:04:04;19.20;68.70
1307;DHT22;646;48.696;9.114;2022-09-01T18:06:47;19.40;70.20
1307;DHT22;646;48.696;9.114;2022-09-01T18:09:17;19.00;70.90
1307;DHT22;646;48.696;9.114;2022-09-01T18:11:57;18.80;71.80
1307;DHT22;646;48.696;9.114;2022-09-01T18:14:32;18.70;71.80
1307;DHT22;646;48.696;9.114;2022-09-01T18:17:11;18.90;72.90
1307;DHT22;646;48.696;9.114;2022-09-01T18:19:43;18.70;73.10
1307;DHT22;646;48.696;9.114;2022-09-01T18:22:15;18.60;74.30
1307;DHT22;646;48.696;9.114;2022-09-01T18:25:03;18.90;75.70
1307;DHT22;646;48.696;9.114;2022-09-01T18:27:30;18.40;77.20
1307;DHT22;646;48.696;9.114;2022-09-01T18:29:56;18.40;77.80
1307;DHT22;646;48.696;9.114;2022-09-01T18:32:56;18.10;79.30
1307;DHT22;646;48.696;9.114;2022-09-01T18:40:41;17.90;82.40
1307;DHT22;646;48.696;9.114;2022-09-01T18:43:30;18.10;83.40
1307;DHT22;646;48.696;9.114;2022-09-01T19:02:22;17.60;92.00
1307;DHT22;646;48.696;9.114;2022-09-01T19:05:17;17.50;92.60
1307;DHT22;646;48.696;9.114;2022-09-01T19:10:26;17.30;94.70
1307;DHT22;646;48.696;9.114;2022-09-01T19:21:25;17.30;97.50
1307;DHT22;646;48.696;9.114;2022-09-01T19:23:58;17.00;98.40
1307;DHT22;646;48.696;9.114;2022-09-01T19:26:26;17.00;98.90
1307;DHT22;646;48.696;9.114;2022-09-01T19:29:11;16.70;99.50
1307;DHT22;646;48.696;9.114;2022-09-01T19:31:44;16.90;99.90
1307;DHT22;646;48.696;9.114;2022-09-01T19:34:24;17.00;99.90
1307;DHT22;646;48.696;9.114;2022-09-01T19:36:53;16.70;99.90
1307;DHT22;646;48.696;9.114;2022-09-01T19:39:40;16.50;99.90
1307;DHT22;646;48.696;9.114;2022-09-01T19:42:30;16.40;99.90